Time;durP1;ratioP1;P1;durP2;ratioP2;P2;SDS_P1;SDS_P2;PMS_P1;PMS_P2;Temp;Humidity;BMP_temperature;BMP_pressure;BME280_temperature;BME280_humidity;BME280_pressure;Samples;Min_cycle;Max_cycle;Signal;HPM_P1;HPM_P2
2021/12/21 00:00:30;;;;;;;29.85;21.63;;;;;;;-2.66;100.00;99495.25;2071386;28;20239;-74
2021/12/21 00:01:31;;;;;;;29.67;21.50;;;;;;;-2.60;100.00;99504.13;2087378;28;20278;-73
2021/12/21 00:02:33;;;;;;;29.77;22.43;;;;;;;-2.63;100.00;99497.47;2087835;28;20252;-74
2021/12/21 00:03:34;;;;;;;34.65;23.00;;;;;;;-2.64;100.00;99502.91;2071235;28;20228;-74
2021/12/21 00:04:35;;;;;;;31.77;23.17;;;;;;;-2.65;100.00;99506.50;2079375;28;20306;-74
2021/12/21 00:05:38;;;;;;;25.67;21.70;;;;;;;-2.67;100.00;99508.53;2087617;28;20214;-74
2021/12/21 00:06:43;;;;;;;30.08;22.10;;;;;;;-2.70;100.00;99503.69;2071618;28;20232;-74
2021/12/21 00:07:45;;;;;;;27.58;21.60;;;;;;;-2.66;100.00;99513.53;2087327;28;20290;-74
2021/12/21 00:08:47;;;;;;;31.52;21.33;;;;;;;-2.67;100.00;99506.72;2087627;28;20226;-75
2021/12/21 00:09:47;;;;;;;31.30;21.92;;;;;;;-2.68;100.00;99507.72;2072009;28;20302;-75
2021/12/21 00:10:49;;;;;;;26.57;21.50;;;;;;;-2.69;100.00;99500.09;2071960;28;20290;-74
2021/12/21 00:11:50;;;;;;;32.47;21.13;;;;;;;-2.68;100.00;99506.91;2071082;28;20228;-74
2021/12/21 00:13:03;;;;;;;33.00;21.88;;;;;;;-2.68;100.00;99497.28;2071216;28;20255;-75
2021/12/21 00:14:17;;;;;;;32.88;21.60;;;;;;;-2.66;100.00;99500.50;2078940;28;20615;-74
2021/12/21 00:15:24;;;;;;;27.40;21.77;;;;;;;-2.68;100.00;99496.47;2079257;28;20234;-74
2021/12/21 00:17:52;;;;;;;25.98;20.67;;;;;;;-2.67;100.00;99498.88;2072348;28;20604;-74
2021/12/21 00:19:08;;;;;;;22.60;19.50;;;;;;;-2.69;100.00;99500.91;2079129;28;20342;-74
2021/12/21 00:20:24;;;;;;;21.27;18.98;;;;;;;-2.69;100.00;99502.72;2079521;28;20632;-75
2021/12/21 00:21:35;;;;;;;27.33;19.20;;;;;;;-2.65;100.00;99499.47;2079676;28;20257;-74
2021/12/21 00:23:17;;;;;;;23.65;19.55;;;;;;;-2.66;100.00;99499.69;2079325;28;20227;-74
2021/12/21 00:24:22;;;;;;;24.85;19.15;;;;;;;-2.72;100.00;99503.09;2081909;28;20242;-75
2021/12/21 00:25:23;;;;;;;27.05;19.45;;;;;;;-2.76;100.00;99501.88;2078637;28;20219;-75
2021/12/21 00:26:25;;;;;;;21.35;19.08;;;;;;;-2.79;100.00;99492.63;2079283;28;20273;-75
2021/12/21 00:27:26;;;;;;;21.35;19.08;;;;;;;-2.79;100.00;99503.06;2078169;28;20223;-74
2021/12/21 00:28:33;;;;;;;22.02;19.38;;;;;;;-2.80;100.00;99500.66;2080050;28;20263;-74
2021/12/21 00:29:33;;;;;;;23.05;19.13;;;;;;;-2.79;100.00;99508.28;2087438;28;20257;-74
2021/12/21 00:30:35;;;;;;;20.13;18.00;;;;;;;-2.81;100.00;99502.47;2087242;28;20223;-75
2021/12/21 00:31:38;;;;;;;20.13;18.02;;;;;;;-2.84;100.00;99500.25;2078998;28;20241;-74
2021/12/21 00:32:39;;;;;;;21.75;17.55;;;;;;;-2.88;100.00;99507.66;2070762;28;20232;-74
2021/12/21 00:33:44;;;;;;;21.40;17.77;;;;;;;-2.91;100.00;99508.06;2079170;28;20215;-75
2021/12/21 00:34:45;;;;;;;21.75;17.23;;;;;;;-2.91;100.00;99518.50;2078757;28;20219;-74
2021/12/21 00:35:47;;;;;;;22.40;17.53;;;;;;;-2.85;100.00;99512.50;2079984;28;20306;-75
2021/12/21 00:36:50;;;;;;;20.55;18.27;;;;;;;-2.84;100.00;99518.53;2079088;28;20816;-75
2021/12/21 00:37:51;;;;;;;19.25;17.35;;;;;;;-2.83;100.00;99522.75;2079320;28;20701;-75
2021/12/21 00:38:56;;;;;;;19.10;17.30;;;;;;;-2.84;100.00;99523.75;2078826;28;20234;-75
2021/12/21 00:39:57;;;;;;;20.17;17.92;;;;;;;-2.80;100.00;99532.00;2079279;28;20223;-73
2021/12/21 00:40:59;;;;;;;21.33;18.63;;;;;;;-2.84;100.00;99528.97;2079013;28;20768;-74
2021/12/21 00:42:01;;;;;;;20.42;18.55;;;;;;;-2.83;100.00;99520.16;2079036;28;20273;-74
2021/12/21 00:43:04;;;;;;;20.55;18.55;;;;;;;-2.83;100.00;99535.00;2079122;28;20235;-74
2021/12/21 00:44:05;;;;;;;19.98;18.08;;;;;;;-2.83;100.00;99530.59;2079081;28;20220;-73
2021/12/21 00:45:07;;;;;;;20.23;18.10;;;;;;;-2.82;100.00;99528.78;2079232;28;20226;-74
2021/12/21 00:46:09;;;;;;;20.65;18.08;;;;;;;-2.85;100.00;99533.41;2079546;28;20583;-73
2021/12/21 00:47:10;;;;;;;19.05;17.08;;;;;;;-2.86;100.00;99526.56;2079033;28;20223;-74
2021/12/21 00:48:15;;;;;;;21.83;18.27;;;;;;;-2.89;100.00;99533.97;2079076;28;20229;-74
2021/12/21 00:49:17;;;;;;;19.88;17.77;;;;;;;-2.90;100.00;99538.41;2079904;28;20220;-74
2021/12/21 00:50:20;;;;;;;19.85;17.95;;;;;;;-2.88;100.00;99528.56;2087269;28;20575;-73
2021/12/21 00:51:24;;;;;;;20.77;18.58;;;;;;;-2.86;100.00;99539.63;2087246;28;20312;-74
2021/12/21 00:52:26;;;;;;;20.25;18.13;;;;;;;-2.89;100.00;99545.22;2078565;28;20241;-74
2021/12/21 00:53:28;;;;;;;22.42;18.58;;;;;;;-2.92;100.00;99540.41;2079085;28;20255;-74
2021/12/21 00:54:29;;;;;;;20.70;18.50;;;;;;;-2.93;100.00;99544.03;2079256;28;20219;-74
2021/12/21 00:55:33;;;;;;;23.37;17.97;;;;;;;-2.93;100.00;99533.56;2079147;28;20233;-73
2021/12/21 00:56:34;;;;;;;19.83;17.90;;;;;;;-2.90;100.00;99540.19;2079887;28;20243;-74
2021/12/21 00:57:36;;;;;;;20.37;18.23;;;;;;;-2.93;100.00;99535.38;2079007;28;20238;-73
2021/12/21 00:58:37;;;;;;;20.67;18.48;;;;;;;-2.90;100.00;99533.16;2071139;28;20228;-74
2021/12/21 00:59:38;;;;;;;21.08;18.88;;;;;;;-2.95;100.00;99530.38;2078701;28;20246;-74
2021/12/21 01:00:40;;;;;;;24.47;19.20;;;;;;;-2.97;100.00;99528.94;2078877;28;20310;-73
2021/12/21 01:01:43;;;;;;;27.27;19.55;;;;;;;-2.98;100.00;99535.16;2079188;28;20227;-73
2021/12/21 01:02:45;;;;;;;23.48;19.73;;;;;;;-3.00;100.00;99532.75;2078930;28;20243;-74
2021/12/21 01:03:50;;;;;;;21.77;19.35;;;;;;;-3.03;100.00;99522.72;2078918;28;20752;-74
2021/12/21 01:04:52;;;;;;;26.05;20.02;;;;;;;-3.03;100.00;99529.75;2079675;28;20608;-73
2021/12/21 01:05:59;;;;;;;20.92;18.83;;;;;;;-3.03;100.00;99538.38;2078619;28;20592;-75
2021/12/21 01:07:05;;;;;;;24.80;19.25;;;;;;;-3.06;100.00;99530.09;2079052;28;20231;-73
2021/12/21 01:08:11;;;;;;;22.52;19.15;;;;;;;-3.11;100.00;99525.50;2079830;28;20562;-73
2021/12/21 01:09:29;;;;;;;21.30;19.10;;;;;;;-3.09;100.00;99535.72;2094860;28;20704;-73
2021/12/21 01:11:58;;;;;;;26.02;19.73;;;;;;;-3.09;100.00;99533.91;2079372;28;20295;-74
2021/12/21 01:13:11;;;;;;;25.83;18.90;;;;;;;-3.03;100.00;99545.41;2079321;28;20276;-74
2021/12/21 01:14:43;;;;;;;23.05;19.92;;;;;;;-3.06;100.00;99523.09;2078621;28;20705;-74
2021/12/21 01:16:02;;;;;;;24.05;19.80;;;;;;;-3.00;100.00;99531.94;2072562;28;20296;-74
2021/12/21 01:17:11;;;;;;;25.25;18.38;;;;;;;-3.03;100.00;99527.13;2078916;28;20298;-74
2021/12/21 01:18:16;;;;;;;25.70;20.50;;;;;;;-3.04;100.00;99541.97;2079289;28;20302;-74
2021/12/21 01:19:22;;;;;;;22.08;19.42;;;;;;;-3.00;100.00;99539.78;2079553;28;20298;-73
2021/12/21 01:20:29;;;;;;;23.10;19.77;;;;;;;-3.01;100.00;99538.16;2079220;28;20302;-73
2021/12/21 01:21:35;;;;;;;22.58;19.95;;;;;;;-3.02;100.00;99539.97;2078799;28;20673;-73
2021/12/21 01:22:55;;;;;;;24.67;19.75;;;;;;;-3.01;100.00;99541.59;2078879;28;20302;-73
2021/12/21 01:25:24;;;;;;;22.83;19.02;;;;;;;-2.95;100.00;99548.63;2077397;28;20277;-74
2021/12/21 01:26:33;;;;;;;23.30;19.42;;;;;;;-3.00;100.00;99530.13;2078122;28;20231;-74
2021/12/21 01:27:44;;;;;;;19.98;17.98;;;;;;;-2.97;100.00;99540.19;2078959;28;20270;-74
2021/12/21 01:28:51;;;;;;;21.25;18.45;;;;;;;-2.86;100.00;99541.44;2078303;28;20236;-73
2021/12/21 01:30:04;;;;;;;22.65;18.65;;;;;;;-2.89;100.00;99540.00;2071021;28;20236;-76
2021/12/21 01:31:18;;;;;;;23.00;18.92;;;;;;;-2.91;100.00;99542.00;2072187;28;20635;-74
2021/12/21 01:32:32;;;;;;;22.52;20.13;;;;;;;-2.91;100.00;99543.81;2078753;28;20306;-74
2021/12/21 01:33:47;;;;;;;21.90;19.70;;;;;;;-2.92;100.00;99548.22;2079154;28;20223;-74
2021/12/21 01:34:58;;;;;;;25.25;19.33;;;;;;;-2.93;100.00;99553.66;2079209;28;20226;-74
2021/12/21 01:36:02;;;;;;;21.48;19.20;;;;;;;-2.95;100.00;99556.47;2078220;28;20227;-73
2021/12/21 01:37:10;;;;;;;22.17;19.80;;;;;;;-2.97;100.00;99540.19;2078660;28;20215;-73
2021/12/21 01:38:23;;;;;;;20.80;18.10;;;;;;;-2.98;100.00;99543.78;2079348;28;20223;-74
2021/12/21 01:40:50;;;;;;;21.48;18.92;;;;;;;-2.92;100.00;99548.22;2074087;28;20227;-73
2021/12/21 01:41:57;;;;;;;23.50;19.60;;;;;;;-2.92;100.00;99548.22;2078739;28;20755;-74
2021/12/21 01:43:16;;;;;;;20.73;18.58;;;;;;;-2.94;100.00;99539.00;2078140;28;20226;-73
2021/12/21 01:44:34;;;;;;;21.70;18.27;;;;;;;-2.91;100.00;99544.63;2072372;28;20681;-73
2021/12/21 01:49:40;;;;;;;21.05;18.90;;;;;;;-2.98;100.00;99546.41;2077798;28;20229;-74
2021/12/21 01:50:43;;;;;;;21.63;19.45;;;;;;;-3.02;100.00;99539.97;2078172;28;20235;-73
2021/12/21 01:51:47;;;;;;;22.00;18.65;;;;;;;-3.00;100.00;99539.78;2086815;28;20215;-74
2021/12/21 01:52:47;;;;;;;22.10;19.00;;;;;;;-3.02;100.00;99542.59;2093878;28;20233;-73
2021/12/21 01:53:50;;;;;;;21.70;18.83;;;;;;;-2.95;100.00;99543.41;2078612;28;20219;-73
2021/12/21 01:54:52;;;;;;;20.52;18.40;;;;;;;-2.96;100.00;99540.97;2070319;28;20235;-73
2021/12/21 01:55:54;;;;;;;20.25;18.08;;;;;;;-2.96;100.00;99540.97;2076549;28;20235;-74
2021/12/21 01:56:55;;;;;;;25.10;19.05;;;;;;;-2.95;100.00;99540.00;2086736;28;20234;-74
2021/12/21 01:57:58;;;;;;;21.50;19.33;;;;;;;-2.96;100.00;99531.34;2079374;28;20708;-74
2021/12/21 01:58:59;;;;;;;20.73;18.55;;;;;;;-2.93;100.00;99533.56;2079365;28;20252;-74
2021/12/21 02:00:01;;;;;;;21.25;18.92;;;;;;;-2.93;100.00;99540.59;2079401;28;20222;-73
2021/12/21 02:01:03;;;;;;;21.40;19.27;;;;;;;-2.87;100.00;99542.41;2094862;28;20217;-74
2021/12/21 02:02:08;;;;;;;20.90;18.73;;;;;;;-2.88;100.00;99546.03;2094706;28;20232;-73
2021/12/21 02:03:09;;;;;;;20.83;18.75;;;;;;;-2.89;100.00;99536.59;2078823;28;20276;-73
2021/12/21 02:04:15;;;;;;;21.30;18.55;;;;;;;-2.83;100.00;99550.66;2086775;28;20294;-73
2021/12/21 02:05:18;;;;;;;20.55;17.90;;;;;;;-2.85;100.00;99548.25;2078547;28;20302;-74
2021/12/21 02:06:22;;;;;;;22.35;18.48;;;;;;;-2.85;100.00;99540.44;2078306;28;20242;-74
2021/12/21 02:07:22;;;;;;;21.65;19.55;;;;;;;-2.85;100.00;99543.84;2078227;28;20227;-74
2021/12/21 02:08:24;;;;;;;23.10;19.47;;;;;;;-2.86;100.00;99534.41;2079068;28;20741;-74
2021/12/21 02:09:33;;;;;;;20.98;18.88;;;;;;;-2.88;100.00;99544.22;2078214;28;20254;-73
2021/12/21 02:10:36;;;;;;;23.25;19.42;;;;;;;-2.88;100.00;99541.59;2078423;28;20232;-73
2021/12/21 02:11:37;;;;;;;23.83;19.90;;;;;;;-2.90;100.00;99540.19;2070012;28;20224;-74
2021/12/21 02:12:39;;;;;;;21.35;19.10;;;;;;;-2.87;100.00;99538.03;2078458;28;20694;-74
2021/12/21 02:13:45;;;;;;;21.10;18.92;;;;;;;-2.88;100.00;99540.81;2078429;28;20306;-74
2021/12/21 02:14:53;;;;;;;21.45;19.30;;;;;;;-2.87;100.00;99537.19;2078414;28;20226;-73
2021/12/21 02:15:55;;;;;;;22.55;19.80;;;;;;;-2.86;100.00;99541.44;2078163;28;20239;-74
2021/12/21 02:17:11;;;;;;;23.63;19.85;;;;;;;-2.86;100.00;99537.00;2079049;28;20238;-73
2021/12/21 02:18:32;;;;;;;27.40;19.17;;;;;;;-2.85;100.00;99543.03;2078816;28;20305;-73
2021/12/21 02:19:42;;;;;;;21.05;18.77;;;;;;;-2.82;100.00;99536.63;2078116;28;20714;-74
2021/12/21 02:20:48;;;;;;;21.15;18.95;;;;;;;-2.78;100.00;99533.41;2070812;28;20295;-73
2021/12/21 02:21:53;;;;;;;22.58;20.40;;;;;;;-2.82;100.00;99531.38;2071147;28;20725;-73
2021/12/21 02:23:00;;;;;;;21.92;19.63;;;;;;;-2.79;100.00;99541.44;2078113;28;20235;-73
2021/12/21 02:24:06;;;;;;;23.90;20.42;;;;;;;-2.77;100.00;99536.84;2079229;28;20225;-74
2021/12/21 02:25:32;;;;;;;21.77;19.58;;;;;;;-2.82;100.00;99528.78;2069794;28;20228;-75
2021/12/21 02:26:41;;;;;;;22.05;19.55;;;;;;;-2.87;100.00;99527.56;2070000;28;20629;-74
2021/12/21 02:27:43;;;;;;;29.80;21.48;;;;;;;-2.85;100.00;99536.00;2078807;28;20824;-74
2021/12/21 02:30:01;;;;;;;24.67;20.67;;;;;;;-2.83;100.00;99529.78;2061302;28;20227;-74
2021/12/21 02:31:02;;;;;;;24.92;20.83;;;;;;;-2.82;100.00;99534.00;2078114;28;20235;-74
2021/12/21 02:32:04;;;;;;;29.50;22.60;;;;;;;-2.81;100.00;99536.41;2078894;28;20251;-74
2021/12/21 02:33:08;;;;;;;27.85;22.10;;;;;;;-2.80;100.00;99540.63;2078380;28;20719;-74
2021/12/21 02:34:11;;;;;;;26.02;21.92;;;;;;;-2.83;100.00;99532.41;2086006;28;20231;-74
2021/12/21 02:35:14;;;;;;;24.92;21.52;;;;;;;-2.81;100.00;99536.41;2093086;28;20230;-74
2021/12/21 02:36:15;;;;;;;27.38;22.60;;;;;;;-2.80;100.00;99534.59;2086332;28;20246;-74
2021/12/21 02:37:17;;;;;;;28.17;22.67;;;;;;;-2.80;100.00;99537.22;2078359;28;20262;-74
2021/12/21 02:38:18;;;;;;;28.50;22.25;;;;;;;-2.83;100.00;99540.22;2078336;28;20235;-74
2021/12/21 02:39:22;;;;;;;30.00;22.47;;;;;;;-2.85;100.00;99538.63;2086301;28;20238;-74
2021/12/21 02:40:24;;;;;;;31.40;24.38;;;;;;;-2.87;100.00;99543.25;2077845;28;20314;-74
2021/12/21 02:41:26;;;;;;;26.07;21.63;;;;;;;-2.86;100.00;99536.22;2078335;28;20228;-74
2021/12/21 02:42:28;;;;;;;29.05;22.35;;;;;;;-2.91;100.00;99528.97;2078217;28;20227;-74
2021/12/21 02:43:28;;;;;;;29.30;22.20;;;;;;;-2.87;100.00;99535.41;2070291;28;20224;-74
2021/12/21 02:44:31;;;;;;;28.53;22.37;;;;;;;-2.87;100.00;99534.56;2078317;28;20231;-74
2021/12/21 02:45:32;;;;;;;30.40;22.63;;;;;;;-2.88;100.00;99536.38;2079062;28;20234;-74
2021/12/21 02:46:35;;;;;;;29.92;22.50;;;;;;;-2.91;100.00;99528.16;2077944;28;20701;-73
2021/12/21 02:47:38;;;;;;;28.77;21.55;;;;;;;-2.86;100.00;99539.63;2078118;28;20246;-74
2021/12/21 02:48:39;;;;;;;26.92;22.80;;;;;;;-2.86;100.00;99534.41;2094046;28;20228;-74
2021/12/21 02:49:41;;;;;;;27.58;23.02;;;;;;;-2.86;100.00;99541.44;2094582;28;20656;-73
2021/12/21 02:50:43;;;;;;;27.17;22.30;;;;;;;-2.83;100.00;99545.44;2078942;28;20689;-74
2021/12/21 02:51:46;;;;;;;28.10;22.15;;;;;;;-2.87;100.00;99530.19;2079085;28;20570;-74
2021/12/21 02:52:47;;;;;;;34.47;22.45;;;;;;;-2.85;100.00;99538.63;2079004;28;20223;-74
2021/12/21 02:53:49;;;;;;;27.00;21.70;;;;;;;-2.86;100.00;99531.00;2078126;28;20321;-74
2021/12/21 02:54:52;;;;;;;28.23;22.15;;;;;;;-2.89;100.00;99531.38;2070020;28;20591;-74
2021/12/21 02:55:53;;;;;;;29.90;22.70;;;;;;;-2.89;100.00;99526.16;2077875;28;20257;-74
2021/12/21 02:56:54;;;;;;;28.27;22.10;;;;;;;-2.90;100.00;99527.94;2078084;28;20227;-74
2021/12/21 02:57:57;;;;;;;25.15;21.63;;;;;;;-2.93;100.00;99528.34;2078277;28;20234;-74
2021/12/21 02:58:59;;;;;;;29.80;21.95;;;;;;;-2.92;100.00;99527.34;2070212;28;20220;-75
2021/12/21 03:00:01;;;;;;;26.08;22.33;;;;;;;-2.88;100.00;99522.53;2078387;28;20584;-74
2021/12/21 03:01:03;;;;;;;25.70;21.63;;;;;;;-2.90;100.00;99537.59;2078054;28;20219;-74
2021/12/21 03:02:04;;;;;;;25.92;22.60;;;;;;;-2.94;100.00;99526.75;2078226;28;20223;-74
2021/12/21 03:03:12;;;;;;;29.40;22.65;;;;;;;-2.91;100.00;99523.72;2078102;28;20223;-74
2021/12/21 03:04:14;;;;;;;26.42;22.13;;;;;;;-2.90;100.00;99525.34;2077986;28;20223;-74
2021/12/21 03:05:15;;;;;;;30.20;21.48;;;;;;;-2.93;100.00;99520.53;2078161;28;20219;-74
2021/12/21 03:06:46;;;;;;;26.92;22.65;;;;;;;-2.92;100.00;99522.13;2078489;28;20246;-74
2021/12/21 03:08:04;;;;;;;28.52;22.05;;;;;;;-2.91;100.00;99523.72;2071653;28;20231;-74
2021/12/21 03:09:16;;;;;;;30.58;22.38;;;;;;;-2.95;100.00;99527.75;2078159;28;20223;-74
2021/12/21 03:10:22;;;;;;;32.10;22.25;;;;;;;-2.96;100.00;99520.09;2078664;28;20215;-74
2021/12/21 03:11:37;;;;;;;32.13;22.55;;;;;;;-2.95;100.00;99522.53;2077474;28;20219;-73
2021/12/21 03:14:03;;;;;;;30.25;22.90;;;;;;;-2.95;100.00;99538.19;2077041;28;20235;-74
2021/12/21 03:15:06;;;;;;;30.58;23.55;;;;;;;-2.94;100.00;99533.78;2086278;28;20693;-74
2021/12/21 03:16:06;;;;;;;31.05;24.42;;;;;;;-2.91;100.00;99541.22;2077482;28;20225;-76
2021/12/21 03:17:09;;;;;;;33.70;23.67;;;;;;;-2.91;100.00;99536.00;2078022;28;20215;-74
2021/12/21 03:18:10;;;;;;;28.30;23.15;;;;;;;-2.86;100.00;99541.44;2070086;28;20230;-74
2021/12/21 03:19:12;;;;;;;29.70;24.03;;;;;;;-2.83;100.00;99546.25;2078033;28;20231;-73
2021/12/21 03:20:13;;;;;;;28.83;22.92;;;;;;;-2.83;100.00;99546.25;2069990;28;20705;-74
2021/12/21 03:21:15;;;;;;;28.20;23.37;;;;;;;-2.86;100.00;99533.59;2069995;28;20616;-74
2021/12/21 03:22:18;;;;;;;30.02;23.35;;;;;;;-2.85;100.00;99530.78;2070277;28;20461;-73
2021/12/21 03:23:19;;;;;;;31.45;24.02;;;;;;;-2.86;100.00;99542.22;2069957;28;20228;-74
2021/12/21 03:24:21;;;;;;;36.07;24.73;;;;;;;-2.84;100.00;99536.81;2078083;28;20298;-74
2021/12/21 03:25:22;;;;;;;32.00;24.05;;;;;;;-2.82;100.00;99539.22;2078255;28;20687;-75
2021/12/21 03:26:24;;;;;;;37.37;24.50;;;;;;;-2.76;100.00;99536.63;2078001;28;20633;-75
2021/12/21 03:27:24;;;;;;;34.75;24.75;;;;;;;-2.79;100.00;99551.88;2069995;28;20274;-74
2021/12/21 03:28:27;;;;;;;31.10;23.83;;;;;;;-2.81;100.00;99538.22;2070179;28;20220;-74
2021/12/21 03:29:28;;;;;;;36.45;24.60;;;;;;;-2.84;100.00;99534.19;2069949;28;20220;-74
2021/12/21 03:30:30;;;;;;;33.33;25.27;;;;;;;-2.85;100.00;99543.03;2078173;28;20215;-74
2021/12/21 03:31:30;;;;;;;40.15;26.30;;;;;;;-2.88;100.00;99533.78;2077403;28;20446;-73
2021/12/21 03:32:32;;;;;;;35.00;26.10;;;;;;;-2.91;100.00;99542.00;2077831;28;20306;-74
2021/12/21 03:33:33;;;;;;;37.80;25.30;;;;;;;-2.94;100.00;99545.03;2070098;28;20227;-74
2021/12/21 03:34:36;;;;;;;36.03;26.73;;;;;;;-2.96;100.00;99525.31;2069886;28;20246;-73
2021/12/21 03:35:40;;;;;;;35.53;25.65;;;;;;;-2.97;100.00;99534.16;2069560;28;20228;-75
2021/12/21 03:36:42;;;;;;;34.53;25.05;;;;;;;-3.01;100.00;99532.94;2078089;28;20232;-74
2021/12/21 03:37:44;;;;;;;33.22;25.38;;;;;;;-2.95;100.00;99525.16;2077912;28;20708;-73
2021/12/21 03:38:53;;;;;;;36.15;25.15;;;;;;;-2.95;100.00;99532.16;2077645;28;20239;-74
2021/12/21 03:39:55;;;;;;;29.17;24.65;;;;;;;-2.93;100.00;99530.97;2077484;28;20764;-74
2021/12/21 03:41:03;;;;;;;33.00;24.65;;;;;;;-2.93;100.00;99536.19;2078111;28;20227;-74
2021/12/21 03:42:06;;;;;;;36.22;25.45;;;;;;;-2.87;100.00;99535.41;2078219;28;20219;-73
2021/12/21 03:43:07;;;;;;;33.58;24.85;;;;;;;-2.88;100.00;99530.34;2077607;28;20326;-74
2021/12/21 03:44:09;;;;;;;32.67;24.67;;;;;;;-2.91;100.00;99528.97;2077725;28;20322;-74
2021/12/21 03:45:10;;;;;;;33.97;24.50;;;;;;;-2.93;100.00;99530.16;2078047;28;20236;-74
2021/12/21 03:46:14;;;;;;;29.37;24.90;;;;;;;-2.97;100.00;99536.75;2077775;28;20723;-73
2021/12/21 03:47:16;;;;;;;34.08;25.67;;;;;;;-2.98;100.00;99532.53;2077733;28;20227;-74
2021/12/21 03:48:18;;;;;;;34.88;26.17;;;;;;;-2.99;100.00;99531.75;2077962;28;20243;-74
2021/12/21 03:49:52;;;;;;;35.63;26.35;;;;;;;-2.99;100.00;99525.72;2078051;28;20223;-74
2021/12/21 03:50:53;;;;;;;32.22;25.48;;;;;;;-3.00;100.00;99529.34;2075286;28;20231;-73
2021/12/21 03:51:54;;;;;;;36.75;25.90;;;;;;;-3.00;100.00;99527.53;2085778;28;20231;-74
2021/12/21 03:52:57;;;;;;;31.47;26.03;;;;;;;-3.00;100.00;99529.34;2092874;28;20317;-74
2021/12/21 03:53:58;;;;;;;37.05;25.85;;;;;;;-2.98;100.00;99529.94;2077804;28;20272;-74
2021/12/21 03:55:02;;;;;;;35.40;26.57;;;;;;;-2.94;100.00;99529.38;2069630;28;20282;-74
2021/12/21 03:56:21;;;;;;;33.58;26.17;;;;;;;-2.98;100.00;99522.91;2077924;28;20602;-74
2021/12/21 03:57:24;;;;;;;31.30;25.42;;;;;;;-2.98;100.00;99533.34;2077286;28;20230;-74
2021/12/21 03:58:24;;;;;;;32.33;26.00;;;;;;;-2.93;100.00;99538.00;2077939;28;20227;-74
2021/12/21 03:59:26;;;;;;;39.17;25.80;;;;;;;-2.87;100.00;99535.41;2077897;28;20281;-74
2021/12/21 04:00:28;;;;;;;33.78;25.40;;;;;;;-2.89;100.00;99542.59;2078037;28;20224;-74
2021/12/21 04:01:29;;;;;;;41.60;26.83;;;;;;;-2.90;100.00;99548.84;2077785;28;20630;-74
2021/12/21 04:02:31;;;;;;;33.95;25.90;;;;;;;-2.90;100.00;99555.88;2077917;28;20227;-74
2021/12/21 04:03:33;;;;;;;30.23;24.88;;;;;;;-2.90;100.00;99548.03;2077967;28;20234;-74
2021/12/21 04:04:34;;;;;;;32.97;25.23;;;;;;;-2.91;100.00;99549.84;2078031;28;20220;-74
2021/12/21 04:05:36;;;;;;;40.20;26.50;;;;;;;-2.87;100.00;99547.63;2078733;28;20211;-74
2021/12/21 04:06:37;;;;;;;38.00;25.20;;;;;;;-2.81;100.00;99543.44;2078378;28;20223;-76
2021/12/21 04:07:39;;;;;;;31.60;24.17;;;;;;;-2.86;100.00;99544.84;2077652;28;20231;-74
2021/12/21 04:08:42;;;;;;;31.17;25.70;;;;;;;-2.89;100.00;99532.16;2077716;28;20219;-73
2021/12/21 04:09:45;;;;;;;31.20;24.98;;;;;;;-2.88;100.00;99546.81;2078234;28;20593;-74
2021/12/21 04:10:45;;;;;;;30.75;24.75;;;;;;;-2.91;100.00;99541.22;2080282;28;20223;-73
2021/12/21 04:11:47;;;;;;;30.07;24.90;;;;;;;-2.94;100.00;99539.00;2079479;28;20250;-74
2021/12/21 04:12:48;;;;;;;36.22;25.60;;;;;;;-2.95;100.00;99542.63;2071578;28;20224;-74
2021/12/21 04:13:49;;;;;;;33.33;25.43;;;;;;;-2.99;100.00;99544.00;2079635;28;20219;-74
2021/12/21 04:14:51;;;;;;;33.15;24.80;;;;;;;-3.05;100.00;99547.38;2087656;28;20777;-74
2021/12/21 04:15:54;;;;;;;32.53;24.92;;;;;;;-3.06;100.00;99543.16;2095359;28;20261;-76
2021/12/21 04:16:55;;;;;;;36.63;25.02;;;;;;;-3.11;100.00;99543.75;2079208;28;20333;-74
2021/12/21 04:17:56;;;;;;;29.70;23.67;;;;;;;-3.14;100.00;99538.91;2071172;28;20256;-74
2021/12/21 04:18:57;;;;;;;30.40;23.95;;;;;;;-3.18;100.00;99543.72;2078239;28;20228;-74
2021/12/21 04:19:59;;;;;;;33.40;24.53;;;;;;;-3.18;100.00;99542.94;2080263;28;20666;-74
2021/12/21 04:21:00;;;;;;;34.90;25.40;;;;;;;-3.21;100.00;99543.31;2079399;28;20223;-74
2021/12/21 04:22:01;;;;;;;36.03;23.83;;;;;;;-3.20;100.00;99550.16;2071170;28;20695;-74
2021/12/21 04:23:03;;;;;;;30.75;24.38;;;;;;;-3.22;100.00;99560.75;2079015;28;20224;-74
2021/12/21 04:24:07;;;;;;;32.70;23.75;;;;;;;-3.25;100.00;99548.09;2095350;28;20256;-74
2021/12/21 04:25:08;;;;;;;30.08;24.75;;;;;;;-3.23;100.00;99558.34;2078835;28;20315;-74
2021/12/21 04:26:10;;;;;;;30.05;25.17;;;;;;;-3.31;100.00;99548.88;2079376;28;20654;-74
2021/12/21 04:27:11;;;;;;;30.58;23.75;;;;;;;-3.31;100.00;99554.09;2079285;28;20223;-74
2021/12/21 04:28:13;;;;;;;34.77;25.03;;;;;;;-3.31;100.00;99558.50;2079272;28;20253;-74
2021/12/21 04:29:13;;;;;;;35.78;25.08;;;;;;;-3.30;100.00;99560.94;2078902;28;20266;-74
2021/12/21 04:30:17;;;;;;;38.83;24.98;;;;;;;-3.29;100.00;99556.53;2071331;28;20311;-74
2021/12/21 04:31:18;;;;;;;28.25;24.55;;;;;;;-3.32;100.00;99562.13;2079318;28;20580;-74
2021/12/21 04:32:20;;;;;;;32.28;24.40;;;;;;;-3.27;100.00;99557.13;2070943;28;20302;-74
2021/12/21 04:33:21;;;;;;;32.60;24.27;;;;;;;-3.27;100.00;99559.75;2079280;28;20227;-74
2021/12/21 04:34:22;;;;;;;31.63;23.97;;;;;;;-3.25;100.00;99558.53;2070603;28;20310;-75
2021/12/21 04:35:23;;;;;;;31.98;23.77;;;;;;;-3.27;100.00;99546.69;2079353;28;20224;-74
2021/12/21 04:36:27;;;;;;;31.35;23.80;;;;;;;-3.25;100.00;99557.75;2079165;28;20595;-74
2021/12/21 04:37:30;;;;;;;33.95;23.58;;;;;;;-3.20;100.00;99557.97;2079278;28;20227;-74
2021/12/21 04:38:34;;;;;;;32.50;24.13;;;;;;;-3.23;100.00;99550.50;2079820;28;20227;-74
2021/12/21 04:39:43;;;;;;;30.52;23.80;;;;;;;-3.23;100.00;99545.31;2080022;28;20226;-74
2021/12/21 04:40:47;;;;;;;32.83;24.60;;;;;;;-3.26;100.00;99543.09;2078680;28;20314;-74
2021/12/21 04:41:49;;;;;;;32.63;23.95;;;;;;;-3.24;100.00;99554.13;2079661;28;20223;-74
2021/12/21 04:42:49;;;;;;;36.30;25.15;;;;;;;-3.24;100.00;99554.13;2087262;28;20223;-74
2021/12/21 04:43:55;;;;;;;34.13;24.93;;;;;;;-3.25;100.00;99560.34;2079205;28;20215;-74
2021/12/21 04:44:57;;;;;;;29.20;22.95;;;;;;;-3.27;100.00;99555.34;2078931;28;20231;-74
2021/12/21 04:45:58;;;;;;;40.47;25.70;;;;;;;-3.26;100.00;99558.75;2079850;28;20223;-74
2021/12/21 04:47:00;;;;;;;33.77;24.63;;;;;;;-3.28;100.00;99558.94;2079175;28;20223;-74
2021/12/21 04:48:01;;;;;;;28.17;25.15;;;;;;;-3.28;100.00;99558.94;2079270;28;20591;-73
2021/12/21 04:49:03;;;;;;;32.73;25.03;;;;;;;-3.30;100.00;99560.13;2079081;28;20223;-74
2021/12/21 04:50:05;;;;;;;31.17;25.15;;;;;;;-3.28;100.00;99563.34;2079351;28;20219;-74
2021/12/21 04:51:07;;;;;;;34.05;26.20;;;;;;;-3.30;100.00;99562.72;2087476;28;20228;-74
2021/12/21 04:52:08;;;;;;;32.78;26.75;;;;;;;-3.30;100.00;99560.13;2078574;28;20227;-74
2021/12/21 04:53:10;;;;;;;30.93;25.30;;;;;;;-3.29;100.00;99557.34;2079078;28;20266;-74
2021/12/21 04:54:11;;;;;;;31.17;25.58;;;;;;;-3.30;100.00;99566.16;2078891;28;20219;-73
2021/12/21 04:55:14;;;;;;;37.27;26.20;;;;;;;-3.24;100.00;99564.56;2079115;28;20322;-74
2021/12/21 04:56:14;;;;;;;37.22;26.17;;;;;;;-3.27;100.00;99562.34;2079056;28;20219;-74
2021/12/21 04:57:17;;;;;;;35.23;25.63;;;;;;;-3.27;100.00;99560.53;2079144;28;20246;-74
2021/12/21 04:58:18;;;;;;;35.10;25.50;;;;;;;-3.25;100.00;99568.19;2079904;28;20284;-74
2021/12/21 04:59:20;;;;;;;34.63;25.05;;;;;;;-3.21;100.00;99569.41;2079067;28;20229;-74
2021/12/21 05:00:21;;;;;;;36.35;26.30;;;;;;;-3.25;100.00;99576.00;2079160;28;20223;-74
2021/12/21 05:01:23;;;;;;;33.97;25.33;;;;;;;-3.23;100.00;99569.59;2078742;28;20294;-75
2021/12/21 05:02:24;;;;;;;32.38;25.55;;;;;;;-3.24;100.00;99575.00;2078853;28;20285;-74
2021/12/21 05:03:25;;;;;;;34.70;25.37;;;;;;;-3.22;100.00;99573.00;2078905;28;20227;-74
2021/12/21 05:04:26;;;;;;;33.10;25.52;;;;;;;-3.21;100.00;99579.84;2079619;28;20567;-74